Terminal Aerodrome Forecast
Issued by NWS Dodge City, KS

Home | Current Version | Previous Version | Graphics & Text | Print | Product List | Glossary Off
Versions: 1 2 3 4 5 6 7 8 9 10 11 12 13 14

000
FTUS43 KDDC 241026 AAA
TAFDDC
TAF AMD
KDDC 241026Z 2410/2506 19023G31KT P6SM SCT250 WS020/21050KT
     FM241300 19022G30KT P6SM SCT250
     FM242000 19012KT P6SM SCT250
     FM242100 16012KT P6SM SCT250
     FM242300 09012KT P6SM SCT200=

USA.gov is the U.S. government's official web portal to all federal, state and local government web resources and services.